createdAt,value
2019-05-03T00:02:01.973Z,8.26
2019-05-03T00:04:36.016Z,8.22
2019-05-03T00:07:09.351Z,8.24
2019-05-03T00:09:42.639Z,8.24
2019-05-03T00:12:15.433Z,8.29
2019-05-03T00:14:56.799Z,8.29
2019-05-03T00:17:30.279Z,8.29
2019-05-03T00:20:02.966Z,8.30
2019-05-03T00:22:36.462Z,8.30
2019-05-03T00:25:09.139Z,8.32
2019-05-03T00:27:42.772Z,8.33
2019-05-03T00:30:16.715Z,8.36
2019-05-03T00:32:49.289Z,8.37
2019-05-03T00:35:39.694Z,8.36
2019-05-03T00:38:15.223Z,8.38
2019-05-03T00:40:47.915Z,8.38
2019-05-03T00:43:22.280Z,8.37
2019-05-03T00:45:54.905Z,8.37
2019-05-03T00:48:27.418Z,8.37
2019-05-03T00:51:02.541Z,8.38
2019-05-03T00:53:35.066Z,8.38
2019-05-03T00:56:08.191Z,8.39
2019-05-03T00:58:53.165Z,8.42
2019-05-03T01:01:25.883Z,8.37
2019-05-03T01:03:58.550Z,8.29
2019-05-03T01:06:32.590Z,8.26
2019-05-03T01:09:18.247Z,8.29
2019-05-03T01:11:52.478Z,8.30
2019-05-03T01:14:25.370Z,8.34
2019-05-03T01:16:58.050Z,8.31
2019-05-03T01:19:32.623Z,8.27
2019-05-03T01:22:05.957Z,8.24
2019-05-03T01:24:38.486Z,8.25
2019-05-03T01:27:12.450Z,8.21
2019-05-03T01:29:45.577Z,8.18
2019-05-03T01:32:22.213Z,8.17
2019-05-03T01:34:55.684Z,8.14
2019-05-03T01:37:33.513Z,8.10
2019-05-03T01:40:08.582Z,8.04
2019-05-03T01:42:42.585Z,7.95
2019-05-03T01:45:16.929Z,7.84
2019-05-03T01:47:59.310Z,7.74
2019-05-03T01:50:39.446Z,7.64
2019-05-03T01:53:14.145Z,7.59
2019-05-03T01:55:52.264Z,7.55
2019-05-03T01:58:26.754Z,7.58
2019-05-03T02:01:22.144Z,7.62
2019-05-03T02:04:06.492Z,7.69
2019-05-03T02:06:40.015Z,7.76
2019-05-03T02:09:12.505Z,7.75
2019-05-03T02:11:45.407Z,7.75
2019-05-03T02:14:18.050Z,7.77
2019-05-03T02:16:52.262Z,7.79
2019-05-03T02:19:25.221Z,7.81
2019-05-03T02:21:57.830Z,7.83
2019-05-03T02:24:30.390Z,7.85
2019-05-03T02:27:04.238Z,7.89
2019-05-03T02:29:38.899Z,7.93
2019-05-03T02:32:13.285Z,7.92
2019-05-03T02:34:46.203Z,7.91
2019-05-03T02:37:18.839Z,7.91
2019-05-03T02:40:08.415Z,7.90
2019-05-03T02:43:05.570Z,7.90
2019-05-03T02:45:51.501Z,7.88
2019-05-03T02:48:32.447Z,7.88
2019-05-03T02:51:06.587Z,7.88
2019-05-03T02:53:39.682Z,7.89
2019-05-03T02:56:21.045Z,7.88
2019-05-03T02:58:55.755Z,7.88
2019-05-03T03:01:30.367Z,7.88
2019-05-03T03:04:05.259Z,7.88
2019-05-03T03:06:42.090Z,7.88
2019-05-03T03:09:19.026Z,7.88
2019-05-03T03:11:56.663Z,7.88
2019-05-03T03:14:55.134Z,7.87
2019-05-03T03:17:36.439Z,7.87
2019-05-03T03:20:09.965Z,7.88
2019-05-03T03:22:49.992Z,7.86
2019-05-03T03:25:39.286Z,7.82
2019-05-03T03:28:18.707Z,7.73
2019-05-03T03:31:30.432Z,7.69
2019-05-03T03:34:10.858Z,7.60
2019-05-03T03:37:03.451Z,7.59
2019-05-03T03:39:39.045Z,7.60
2019-05-03T03:42:12.775Z,7.59
2019-05-03T03:44:48.696Z,7.59
2019-05-03T03:47:26.904Z,7.59
2019-05-03T03:50:05.706Z,7.56
2019-05-03T03:52:41.999Z,7.56
2019-05-03T03:55:16.105Z,7.57
2019-05-03T03:57:48.930Z,7.56
2019-05-03T04:00:21.768Z,7.52
2019-05-03T04:02:56.234Z,7.46
2019-05-03T04:05:28.729Z,7.42
2019-05-03T04:08:05.380Z,7.36
2019-05-03T04:10:39.720Z,7.34
2019-05-03T04:13:15.972Z,7.40
2019-05-03T04:16:05.547Z,7.47
2019-05-03T04:18:46.738Z,7.47
2019-05-03T04:21:19.621Z,7.47
2019-05-03T04:23:55.484Z,7.46
2019-05-03T04:26:29.927Z,7.45
2019-05-03T04:29:05.342Z,7.46
2019-05-03T04:31:39.336Z,7.49
2019-05-03T04:34:12.010Z,7.51
2019-05-03T04:36:46.155Z,7.51
2019-05-03T04:39:25.585Z,7.51
2019-05-03T04:41:58.433Z,7.52
2019-05-03T04:44:30.968Z,7.56
2019-05-03T04:47:06.993Z,7.61
2019-05-03T04:49:40.529Z,7.54
2019-05-03T04:52:16.215Z,7.32
2019-05-03T04:54:56.226Z,7.16
2019-05-03T04:57:40.578Z,7.02
2019-05-03T05:00:18.384Z,6.91
2019-05-03T05:02:50.808Z,6.85
2019-05-03T05:05:26.217Z,6.86
2019-05-03T05:07:59.109Z,6.87
2019-05-03T05:10:31.734Z,6.82
2019-05-03T05:13:08.432Z,6.84
2019-05-03T05:15:40.920Z,6.79
2019-05-03T05:18:22.629Z,6.74
2019-05-03T05:21:04.574Z,6.71
2019-05-03T05:23:56.831Z,6.68
2019-05-03T05:26:44.601Z,6.62
2019-05-03T05:29:21.873Z,6.59
2019-05-03T05:31:54.843Z,6.64
2019-05-03T05:34:28.706Z,6.69
2019-05-03T05:37:01.299Z,6.77
2019-05-03T05:39:35.584Z,6.79
2019-05-03T05:42:08.884Z,6.84
2019-05-03T05:44:41.836Z,6.94
2019-05-03T05:47:40.034Z,7.02
2019-05-03T05:50:27.788Z,7.08
2019-05-03T05:53:04.957Z,7.12
2019-05-03T05:55:57.688Z,7.12
2019-05-03T05:58:46.366Z,7.08
2019-05-03T06:01:25.170Z,7.13
2019-05-03T06:03:57.717Z,7.15
2019-05-03T06:06:52.335Z,7.18
2019-05-03T06:09:38.766Z,7.26
2019-05-03T06:12:17.074Z,7.34
2019-05-03T06:14:55.460Z,7.40
2019-05-03T06:17:35.883Z,7.49
2019-05-03T06:20:28.658Z,7.55
2019-05-03T06:23:21.226Z,7.56
2019-05-03T06:25:54.553Z,7.60
2019-05-03T06:28:32.698Z,7.64
2019-05-03T06:31:26.939Z,7.65
2019-05-03T06:33:59.846Z,7.68
2019-05-03T06:36:32.601Z,7.79
2019-05-03T06:39:09.683Z,7.91
2019-05-03T06:41:44.561Z,7.98
2019-05-03T06:44:23.716Z,7.99
2019-05-03T06:47:08.710Z,8.00
2019-05-03T06:49:44.812Z,8.07
2019-05-03T06:52:25.488Z,8.01
2019-05-03T06:55:06.516Z,7.85
2019-05-03T06:57:49.494Z,7.81
2019-05-03T07:00:49.791Z,7.79
2019-05-03T07:03:31.176Z,7.76
2019-05-03T07:06:10.693Z,7.92
2019-05-03T07:09:05.541Z,8.24
2019-05-03T07:11:38.062Z,8.59
2019-05-03T07:14:15.444Z,8.71
2019-05-03T07:16:49.124Z,8.98
2019-05-03T07:19:25.070Z,9.20
2019-05-03T07:21:58.245Z,9.67
2019-05-03T07:24:34.567Z,10.02
2019-05-03T07:27:12.261Z,9.94
2019-05-03T07:29:45.707Z,9.82
2019-05-03T07:32:20.568Z,10.59
2019-05-03T07:34:55.613Z,11.40
2019-05-03T07:37:28.171Z,11.33
2019-05-03T07:40:01.745Z,11.10
2019-05-03T07:42:35.022Z,10.72
2019-05-03T07:45:07.099Z,10.33
2019-05-03T07:47:45.110Z,10.15
2019-05-03T07:50:20.523Z,9.93
2019-05-03T07:52:56.907Z,10.70
2019-05-03T07:55:38.978Z,11.29
2019-05-03T07:58:20.817Z,11.53
2019-05-03T08:01:06.167Z,11.02
2019-05-03T08:03:42.767Z,10.48
2019-05-03T08:06:17.523Z,10.71
2019-05-03T08:08:50.175Z,11.14
2019-05-03T08:11:24.879Z,11.08
2019-05-03T08:13:58.326Z,10.84
2019-05-03T08:16:35.063Z,10.37
2019-05-03T08:19:08.576Z,10.62
2019-05-03T08:21:41.092Z,11.65
2019-05-03T08:24:22.350Z,11.82
2019-05-03T08:26:57.198Z,11.52
2019-05-03T08:29:35.215Z,11.11
2019-05-03T08:32:15.313Z,10.91
2019-05-03T08:35:11.003Z,11.49
2019-05-03T08:37:57.671Z,12.66
2019-05-03T08:40:43.140Z,13.69
2019-05-03T08:43:17.498Z,14.20
2019-05-03T08:45:50.322Z,13.48
2019-05-03T08:48:25.383Z,12.53
2019-05-03T08:50:59.394Z,11.88
2019-05-03T08:53:35.791Z,11.69
2019-05-03T08:56:15.654Z,11.69
2019-05-03T08:58:50.367Z,12.28
2019-05-03T09:01:25.110Z,13.05
2019-05-03T09:03:59.070Z,12.81
2019-05-03T09:06:35.356Z,12.34
2019-05-03T09:09:25.029Z,11.85
2019-05-03T09:11:58.363Z,11.78
2019-05-03T09:14:42.672Z,12.62
2019-05-03T09:17:18.010Z,13.78
2019-05-03T09:19:50.885Z,14.18
2019-05-03T09:22:25.677Z,13.95
2019-05-03T09:24:59.978Z,13.98
2019-05-03T09:27:34.411Z,13.86
2019-05-03T09:30:10.681Z,13.65
2019-05-03T09:32:48.332Z,13.77
2019-05-03T09:35:30.500Z,13.40
2019-05-03T09:38:09.594Z,13.46
2019-05-03T09:40:42.757Z,13.26
2019-05-03T09:43:16.791Z,12.76
2019-05-03T09:45:50.228Z,12.60
2019-05-03T09:48:25.159Z,12.45
2019-05-03T09:50:59.778Z,12.39
2019-05-03T09:53:44.478Z,12.54
2019-05-03T09:56:57.506Z,12.61
2019-05-03T09:59:31.516Z,12.38
2019-05-03T10:02:05.127Z,12.13
2019-05-03T10:04:41.333Z,12.12
2019-05-03T10:07:15.457Z,12.06
2019-05-03T10:10:02.038Z,11.97
2019-05-03T10:12:36.323Z,12.05
2019-05-03T10:15:09.676Z,12.26
2019-05-03T10:17:51.278Z,12.34
2019-05-03T10:20:26.826Z,12.46
2019-05-03T10:23:11.595Z,12.86
2019-05-03T10:25:47.090Z,13.38
2019-05-03T10:28:21.597Z,13.59
2019-05-03T10:30:55.171Z,13.52
2019-05-03T10:33:38.114Z,13.58
2019-05-03T10:36:10.607Z,13.93
2019-05-03T10:38:43.152Z,13.77
2019-05-03T10:41:17.632Z,13.74
2019-05-03T10:43:51.935Z,13.96
2019-05-03T10:46:25.101Z,14.04
2019-05-03T10:48:58.643Z,13.88
2019-05-03T10:51:41.791Z,13.91
2019-05-03T10:54:14.678Z,14.14
2019-05-03T10:56:55.931Z,14.27
2019-05-03T10:59:29.144Z,14.37
2019-05-03T11:02:25.300Z,14.80
2019-05-03T11:04:58.303Z,15.38
2019-05-03T11:07:34.598Z,15.81
2019-05-03T11:10:10.169Z,16.42
2019-05-03T11:12:46.368Z,15.96
2019-05-03T11:15:19.358Z,15.38
2019-05-03T11:17:52.042Z,14.89
2019-05-03T11:20:35.887Z,15.08
2019-05-03T11:23:11.902Z,15.20
2019-05-03T11:25:45.387Z,15.19
2019-05-03T11:28:24.995Z,14.80
2019-05-03T11:31:51.490Z,14.68
2019-05-03T11:34:30.836Z,14.65
2019-05-03T11:37:11.750Z,15.11
2019-05-03T11:39:45.193Z,15.48
2019-05-03T11:42:19.708Z,15.13
2019-05-03T11:44:55.658Z,15.27
2019-05-03T11:47:28.290Z,15.11
2019-05-03T11:50:02.480Z,14.97
2019-05-03T11:52:37.579Z,15.13
2019-05-03T11:55:15.692Z,14.99
2019-05-03T11:57:48.775Z,14.74
2019-05-03T12:00:36.125Z,14.92
2019-05-03T12:03:25.067Z,15.69
2019-05-03T12:05:59.931Z,15.79
2019-05-03T12:08:34.740Z,15.44
2019-05-03T12:11:09.255Z,15.12
2019-05-03T12:13:41.690Z,15.23
2019-05-03T12:16:21.365Z,15.38
2019-05-03T12:19:17.113Z,15.86
2019-05-03T12:21:53.354Z,15.73
2019-05-03T12:24:29.023Z,15.30
2019-05-03T12:27:04.643Z,15.07
2019-05-03T12:29:41.688Z,14.83
2019-05-03T12:32:14.776Z,14.60
2019-05-03T12:34:48.097Z,14.43
2019-05-03T12:37:21.910Z,14.22
2019-05-03T12:39:54.846Z,14.19
2019-05-03T12:42:27.625Z,14.17
2019-05-03T12:45:00.403Z,14.34
2019-05-03T12:47:37.085Z,14.67
2019-05-03T12:50:11.373Z,14.80
2019-05-03T12:52:50.397Z,14.78
2019-05-03T12:55:24.759Z,15.18
2019-05-03T12:57:57.589Z,15.50
2019-05-03T13:00:48.331Z,15.17
2019-05-03T13:03:27.934Z,15.22
2019-05-03T13:06:00.759Z,15.79
2019-05-03T13:08:40.297Z,16.02
2019-05-03T13:11:12.963Z,16.08
2019-05-03T13:13:47.954Z,15.76
2019-05-03T13:16:24.695Z,15.50
2019-05-03T13:19:02.727Z,15.46
2019-05-03T13:21:36.180Z,15.47
2019-05-03T13:24:21.892Z,15.31
2019-05-03T13:26:59.163Z,15.08
2019-05-03T13:29:34.715Z,14.90
2019-05-03T13:32:14.157Z,15.20
2019-05-03T13:34:50.475Z,15.18
2019-05-03T13:37:25.361Z,15.15
2019-05-03T13:40:00.036Z,15.08
2019-05-03T13:42:35.090Z,14.85
2019-05-03T13:45:07.418Z,14.79
2019-05-03T13:47:44.688Z,15.01
2019-05-03T13:50:24.587Z,15.06
2019-05-03T13:52:59.173Z,15.09
2019-05-03T13:55:35.332Z,15.23
2019-05-03T13:58:08.173Z,15.25
2019-05-03T14:00:40.812Z,14.81
2019-05-03T14:03:15.208Z,14.84
2019-05-03T14:05:48.087Z,15.17
2019-05-03T14:08:22.235Z,15.45
2019-05-03T14:10:56.680Z,15.23
2019-05-03T14:13:35.071Z,15.09
2019-05-03T14:16:10.457Z,14.83
2019-05-03T14:18:46.169Z,14.52
2019-05-03T14:21:27.120Z,14.33
2019-05-03T14:24:06.360Z,14.23
2019-05-03T14:26:42.106Z,14.16
2019-05-03T14:29:21.643Z,14.16
2019-05-03T14:32:28.373Z,14.10
2019-05-03T14:35:06.927Z,13.99
2019-05-03T14:37:40.388Z,13.77
2019-05-03T14:40:15.779Z,13.68
2019-05-03T14:42:52.248Z,13.56
2019-05-03T14:45:32.291Z,13.57
2019-05-03T14:48:09.283Z,13.55
2019-05-03T14:50:42.732Z,13.54
2019-05-03T14:53:18.691Z,13.52
2019-05-03T14:56:07.858Z,13.45
2019-05-03T14:59:06.498Z,13.39
2019-05-03T15:01:59.448Z,13.29
2019-05-03T15:04:35.113Z,13.19
2019-05-03T15:07:08.230Z,13.21
2019-05-03T15:09:42.381Z,13.16
2019-05-03T15:12:15.821Z,13.10
2019-05-03T15:14:51.788Z,13.04
2019-05-03T15:17:24.764Z,13.05
2019-05-03T15:20:06.870Z,13.00
2019-05-03T15:22:42.501Z,12.95
2019-05-03T15:25:16.660Z,12.79
2019-05-03T15:27:52.556Z,12.72
2019-05-03T15:30:27.718Z,12.59
2019-05-03T15:33:04.752Z,12.49
2019-05-03T15:35:39.493Z,12.43
2019-05-03T15:38:14.473Z,12.46
2019-05-03T15:40:51.150Z,12.55
2019-05-03T15:43:39.161Z,12.49
2019-05-03T15:46:30.241Z,12.44
2019-05-03T15:49:04.627Z,12.36
2019-05-03T15:51:37.551Z,12.40
2019-05-03T15:54:10.869Z,12.35
2019-05-03T15:56:44.882Z,12.26
2019-05-03T16:02:30.874Z,12.13
2019-05-03T16:05:04.935Z,12.10
2019-05-03T16:07:38.085Z,12.04
2019-05-03T16:10:15.411Z,12.05
2019-05-03T16:12:48.403Z,12.12
2019-05-03T16:15:22.016Z,12.23
2019-05-03T16:17:56.496Z,12.18
2019-05-03T16:20:30.938Z,12.04
2019-05-03T16:23:05.420Z,11.89
2019-05-03T16:25:46.709Z,11.81
2019-05-03T16:28:51.463Z,11.79
2019-05-03T16:31:28.950Z,11.68
2019-05-03T16:34:01.832Z,11.54
2019-05-03T16:36:34.636Z,11.46
2019-05-03T16:39:12.002Z,11.43
2019-05-03T16:41:47.139Z,11.44
2019-05-03T16:44:24.330Z,11.38
2019-05-03T16:46:58.653Z,11.30
2019-05-03T16:49:31.619Z,11.30
2019-05-03T16:52:05.597Z,11.41
2019-05-03T16:54:38.947Z,11.40
2019-05-03T16:57:14.842Z,11.40
2019-05-03T16:59:50.121Z,11.39
2019-05-03T17:02:24.588Z,11.35
2019-05-03T17:05:08.694Z,11.27
2019-05-03T17:07:50.927Z,11.18
2019-05-03T17:10:35.567Z,11.10
2019-05-03T17:13:11.636Z,11.02
2019-05-03T17:15:45.652Z,10.98
2019-05-03T17:18:26.723Z,10.91
2019-05-03T17:21:00.978Z,10.85
2019-05-03T17:23:37.504Z,10.80
2019-05-03T17:26:17.631Z,10.74
2019-05-03T17:28:55.355Z,10.67
2019-05-03T17:31:28.264Z,10.59
2019-05-03T17:34:01.628Z,10.52
2019-05-03T17:36:56.496Z,10.44
2019-05-03T17:39:35.667Z,10.37
2019-05-03T17:42:25.959Z,10.32
2019-05-03T17:45:00.254Z,10.29
2019-05-03T17:47:36.875Z,10.26
2019-05-03T17:50:10.371Z,10.19
2019-05-03T17:53:02.792Z,10.11
2019-05-03T17:55:40.912Z,10.05
2019-05-03T17:58:26.131Z,9.98
2019-05-03T18:01:07.693Z,9.91
2019-05-03T18:03:44.896Z,9.90
2019-05-03T18:06:29.868Z,9.84
2019-05-03T18:09:22.844Z,9.76
2019-05-03T18:11:59.369Z,9.71
2019-05-03T18:14:37.332Z,9.65
2019-05-03T18:17:12.429Z,9.59
2019-05-03T18:19:50.263Z,9.55
2019-05-03T18:22:29.592Z,9.54
2019-05-03T18:25:05.025Z,9.47
2019-05-03T18:27:40.889Z,9.43
2019-05-03T18:30:22.479Z,9.37
2019-05-03T18:33:08.716Z,9.32
2019-05-03T18:35:44.120Z,9.27
2019-05-03T18:38:18.216Z,9.23
2019-05-03T18:40:52.391Z,9.18
2019-05-03T18:43:45.860Z,9.15
2019-05-03T18:46:25.795Z,9.12
2019-05-03T18:48:58.975Z,9.11
2019-05-03T18:51:34.395Z,9.09
2019-05-03T18:54:07.521Z,9.08
2019-05-03T18:56:40.947Z,9.05
2019-05-03T18:59:14.654Z,9.02
2019-05-03T19:01:49.872Z,9.03
2019-05-03T19:04:40.288Z,9.00
2019-05-03T19:07:18.813Z,8.97
2019-05-03T19:10:05.751Z,8.91
2019-05-03T19:12:45.988Z,8.88
2019-05-03T19:15:20.167Z,8.90
2019-05-03T19:18:00.462Z,8.84
2019-05-03T19:20:35.101Z,8.82
2019-05-03T19:23:15.744Z,8.79
2019-05-03T19:26:01.303Z,8.76
2019-05-03T19:28:41.622Z,8.74
2019-05-03T19:31:29.136Z,8.73
2019-05-03T19:34:15.468Z,8.72
2019-05-03T19:36:54.957Z,8.71
2019-05-03T19:39:29.424Z,8.74
2019-05-03T19:42:04.256Z,8.72
2019-05-03T19:44:47.808Z,8.71
2019-05-03T19:47:28.291Z,8.68
2019-05-03T19:50:00.951Z,8.72
2019-05-03T19:52:59.451Z,8.68
2019-05-03T19:55:33.216Z,8.70
2019-05-03T19:58:07.608Z,8.71
2019-05-03T20:01:07.904Z,8.65
2019-05-03T20:03:50.270Z,8.62
2019-05-03T20:06:36.002Z,8.61
2019-05-03T20:09:15.210Z,8.59
2019-05-03T20:11:48.808Z,8.57
2019-05-03T20:14:25.725Z,8.57
2019-05-03T20:17:04.071Z,8.54
2019-05-03T20:19:38.247Z,8.53
2019-05-03T20:22:10.857Z,8.50
2019-05-03T20:24:44.777Z,8.47
2019-05-03T20:27:18.548Z,8.46
2019-05-03T20:29:55.468Z,8.44
2019-05-03T20:32:29.297Z,8.42
2019-05-03T20:35:14.835Z,8.45
2019-05-03T20:37:51.081Z,8.42
2019-05-03T20:40:25.921Z,8.39
2019-05-03T20:43:04.932Z,8.39
2019-05-03T20:45:44.595Z,8.48
2019-05-03T20:48:19.623Z,8.51
2019-05-03T20:50:58.932Z,8.60
2019-05-03T20:53:31.665Z,8.55
2019-05-03T20:56:05.434Z,8.53
2019-05-03T20:58:40.592Z,8.45
2019-05-03T21:01:15.345Z,8.36
2019-05-03T21:03:48.720Z,8.27
2019-05-03T21:06:35.165Z,8.23
2019-05-03T21:09:10.118Z,8.19
2019-05-03T21:11:45.078Z,8.18
2019-05-03T21:14:20.975Z,8.14
2019-05-03T21:17:04.472Z,8.11
2019-05-03T21:19:55.159Z,8.08
2019-05-03T21:22:36.765Z,8.08
2019-05-03T21:25:16.926Z,8.03
2019-05-03T21:27:49.611Z,7.99
2019-05-03T21:30:24.584Z,7.97
2019-05-03T21:33:05.397Z,7.90
2019-05-03T21:35:45.119Z,7.83
2019-05-03T21:38:19.974Z,7.78
2019-05-03T21:40:54.658Z,7.75
2019-05-03T21:43:28.805Z,7.74
2019-05-03T21:46:12.338Z,7.71
2019-05-03T21:48:52.801Z,7.59
2019-05-03T21:51:25.800Z,7.50
2019-05-03T21:54:01.653Z,7.43
2019-05-03T21:56:36.724Z,7.39
2019-05-03T21:59:12.420Z,7.31
2019-05-03T22:01:48.462Z,7.28
2019-05-03T22:04:21.616Z,7.21
2019-05-03T22:06:57.174Z,7.11
2019-05-03T22:09:29.815Z,7.00
2019-05-03T22:12:05.249Z,6.94
2019-05-03T22:14:47.494Z,6.88
2019-05-03T22:17:26.747Z,6.82
2019-05-03T22:20:19.510Z,6.80
2019-05-03T22:23:08.272Z,6.74
2019-05-03T22:25:45.267Z,6.67
2019-05-03T22:28:19.540Z,6.65
2019-05-03T22:30:52.433Z,6.64
2019-05-03T22:33:25.857Z,6.59
2019-05-03T22:36:08.264Z,6.55
2019-05-03T22:38:42.067Z,6.54
2019-05-03T22:41:14.868Z,6.52
2019-05-03T22:43:48.432Z,6.50
2019-05-03T22:46:24.837Z,6.50
2019-05-03T22:48:58.511Z,6.48
2019-05-03T22:51:31.965Z,6.48
2019-05-03T22:54:04.903Z,6.46
2019-05-03T22:56:37.423Z,6.43
2019-05-03T22:59:09.858Z,6.42
2019-05-03T23:01:42.927Z,6.41
2019-05-03T23:04:15.443Z,6.40
2019-05-03T23:06:47.959Z,6.40
2019-05-03T23:09:20.885Z,6.39
2019-05-03T23:11:55.233Z,6.37
2019-05-03T23:14:29.113Z,6.38
2019-05-03T23:17:04.509Z,6.33
2019-05-03T23:19:42.364Z,6.25
2019-05-03T23:22:21.495Z,6.25
2019-05-03T23:24:54.788Z,6.21
2019-05-03T23:27:29.501Z,6.17
2019-05-03T23:30:06.559Z,6.16
2019-05-03T23:32:39.572Z,6.15
2019-05-03T23:35:12.321Z,6.10
2019-05-03T23:37:45.344Z,6.09
2019-05-03T23:40:17.940Z,6.07
2019-05-03T23:42:50.738Z,6.01
2019-05-03T23:45:25.529Z,5.98
2019-05-03T23:47:58.531Z,5.97
2019-05-03T23:50:31.126Z,5.93
2019-05-03T23:53:04.922Z,5.87
2019-05-03T23:55:44.896Z,5.84
2019-05-03T23:58:18.191Z,5.79
